Time;durP1;ratioP1;P1;durP2;ratioP2;P2;SDS_P1;SDS_P2;PMS_P1;PMS_P2;Temp;Humidity;BMP_temperature;BMP_pressure;BME280_temperature;BME280_humidity;BME280_pressure;Samples;Min_cycle;Max_cycle;Signal;HPM_P1;HPM_P2
2022/05/11 00:01:23;;;;;;;33.70;18.00;;;11.80;99.90;;;;;;5108851;27;20459;-53
2022/05/11 00:03:49;;;;;;;28.67;16.40;;;11.80;99.90;;;;;;5104868;28;20275;-53
2022/05/11 00:06:14;;;;;;;32.90;15.57;;;11.80;99.90;;;;;;5098600;28;20994;-53
2022/05/11 00:08:40;;;;;;;28.17;16.73;;;11.90;99.90;;;;;;5105260;27;20201;-53
2022/05/11 00:11:05;;;;;;;29.50;18.40;;;11.80;99.90;;;;;;5105601;27;20216;-53
2022/05/11 00:13:32;;;;;;;28.20;17.50;;;11.80;99.90;;;;;;5104993;28;20199;-53
2022/05/11 00:15:58;;;;;;;28.70;16.80;;;11.80;99.90;;;;;;5107636;27;20222;-53
2022/05/11 00:18:24;;;;;;;33.77;17.70;;;11.80;99.90;;;;;;5101194;28;20452;-53
2022/05/11 00:20:49;;;;;;;29.23;17.37;;;11.80;99.90;;;;;;5102714;28;20285;-53
2022/05/11 00:23:15;;;;;;;27.57;17.30;;;11.80;99.90;;;;;;5102514;28;20273;-54
2022/05/11 00:25:41;;;;;;;30.93;17.83;;;11.80;99.90;;;;;;5105501;28;20983;-53
2022/05/11 00:28:06;;;;;;;34.13;15.67;;;11.80;99.90;;;;;;5098431;28;20188;-54
2022/05/11 00:30:32;;;;;;;26.67;16.57;;;11.80;99.90;;;;;;5104957;28;20208;-53
2022/05/11 00:33:00;;;;;;;26.10;17.97;;;11.70;99.90;;;;;;5104969;28;20216;-53
2022/05/11 00:35:28;;;;;;;28.27;16.60;;;11.80;99.90;;;;;;5095295;28;20304;-54
2022/05/11 00:37:53;;;;;;;23.70;15.57;;;11.80;99.90;;;;;;5101658;28;20823;-53
2022/05/11 00:40:22;;;;;;;28.17;17.30;;;11.80;99.90;;;;;;5098938;28;20421;-53
2022/05/11 00:42:47;;;;;;;26.57;17.20;;;11.80;99.90;;;;;;5100855;28;20197;-53
2022/05/11 00:45:13;;;;;;;35.80;19.87;;;11.80;99.90;;;;;;5103875;28;21014;-53
2022/05/11 00:49:33;;;;;;;40.67;18.67;;;11.80;99.90;;;;;;5099063;28;20548;-53
2022/05/11 00:50:48;;;;;;;29.90;17.80;;;11.80;99.90;;;;;;5100919;28;20451;-55
2022/05/11 00:53:14;;;;;;;33.67;18.40;;;11.80;99.90;;;;;;5101216;28;20437;-53
2022/05/11 00:55:49;;;;;;;29.63;18.07;;;11.80;99.90;;;;;;5104724;28;20680;-53
2022/05/11 00:58:23;;;;;;;34.47;20.03;;;11.80;99.90;;;;;;5100407;28;20270;-53
2022/05/11 01:00:48;;;;;;;32.13;18.63;;;11.80;99.90;;;;;;5097341;28;20427;-53
2022/05/11 01:03:18;;;;;;;26.60;16.87;;;11.90;99.90;;;;;;5103391;28;20499;-53
2022/05/11 01:05:45;;;;;;;30.43;19.33;;;11.90;99.90;;;;;;5100892;28;20196;-53
2022/05/11 01:08:13;;;;;;;33.20;17.30;;;11.90;99.90;;;;;;5102334;28;20440;-53
2022/05/11 01:10:39;;;;;;;29.27;17.57;;;11.90;99.90;;;;;;5094331;28;20818;-53
2022/05/11 01:13:08;;;;;;;35.47;19.00;;;11.80;99.90;;;;;;5098988;28;20518;-53
2022/05/11 01:15:33;;;;;;;30.93;19.40;;;11.90;99.90;;;;;;5103868;28;20434;-53
2022/05/11 01:18:02;;;;;;;34.43;20.30;;;11.90;99.90;;;;;;5103105;28;20465;-53
2022/05/11 01:20:30;;;;;;;30.73;19.20;;;11.90;99.90;;;;;;5063712;28;1029031;-53
2022/05/11 01:23:14;;;;;;;35.43;20.13;;;11.90;99.90;;;;;;5100545;28;20540;-54
2022/05/11 01:25:40;;;;;;;31.37;19.83;;;11.90;99.90;;;;;;5102886;28;20466;-53
2022/05/11 01:28:12;;;;;;;33.63;19.30;;;11.90;99.90;;;;;;5103097;28;20508;-53
2022/05/11 01:31:04;;;;;;;32.40;18.70;;;11.90;99.90;;;;;;5106167;28;20284;-53
2022/05/11 01:33:31;;;;;;;37.30;18.20;;;11.90;99.90;;;;;;5094183;28;20518;-53
2022/05/11 01:36:19;;;;;;;28.83;18.70;;;11.90;99.90;;;;;;5103725;28;20938;-53
2022/05/11 01:38:49;;;;;;;27.97;16.93;;;12.00;99.90;;;;;;5098502;28;20427;-53
2022/05/11 01:41:23;;;;;;;30.13;18.67;;;11.90;99.90;;;;;;5103396;28;20441;-53
2022/05/11 01:43:50;;;;;;;32.23;19.93;;;11.90;99.90;;;;;;5099185;28;20442;-53
2022/05/11 01:46:16;;;;;;;26.20;18.73;;;12.00;99.90;;;;;;5103863;28;20438;-53
2022/05/11 01:48:42;;;;;;;31.03;18.90;;;12.00;99.90;;;;;;5098647;28;20439;-53
2022/05/11 01:51:07;;;;;;;31.87;17.80;;;12.00;99.90;;;;;;5103144;28;20494;-53
2022/05/11 01:53:33;;;;;;;24.73;17.13;;;12.00;99.90;;;;;;5099857;28;20485;-53
2022/05/11 01:55:58;;;;;;;26.87;16.87;;;12.10;99.90;;;;;;5102562;28;20899;-53
2022/05/11 01:58:24;;;;;;;31.60;17.93;;;12.10;99.90;;;;;;5105449;28;20193;-53
2022/05/11 02:00:50;;;;;;;27.27;17.53;;;12.10;99.90;;;;;;5103845;28;20275;-53
2022/05/11 02:03:20;;;;;;;25.73;16.80;;;12.20;99.90;;;;;;5098437;28;20555;-53
2022/05/11 02:08:31;;;;;;;24.37;16.77;;;12.20;99.90;;;;;;5090725;28;20989;-58
2022/05/11 02:10:57;;;;;;;26.13;17.00;;;12.30;99.90;;;;;;5102153;28;20535;-58
2022/05/11 02:13:23;;;;;;;27.40;18.67;;;12.30;99.90;;;;;;5105872;28;20248;-59
2022/05/11 02:15:50;;;;;;;24.37;16.73;;;12.30;99.90;;;;;;5103139;28;20434;-58
2022/05/11 02:18:16;;;;;;;26.40;16.73;;;12.30;99.90;;;;;;5096838;28;20193;-58
2022/05/11 02:20:42;;;;;;;32.97;18.50;;;12.20;99.90;;;;;;5098998;28;20570;-58
2022/05/11 02:23:08;;;;;;;26.83;17.87;;;12.20;99.90;;;;;;5099452;28;20535;-57
2022/05/11 02:25:33;;;;;;;28.73;17.60;;;12.20;99.90;;;;;;5099246;28;20205;-58
2022/05/11 02:27:59;;;;;;;29.70;17.73;;;12.20;99.90;;;;;;5105598;28;20200;-57
2022/05/11 02:30:28;;;;;;;25.23;17.20;;;12.20;99.90;;;;;;5095988;28;20825;-58
2022/05/11 02:32:55;;;;;;;24.97;16.43;;;12.20;99.90;;;;;;5103637;28;20224;-58
2022/05/11 02:35:22;;;;;;;22.10;15.03;;;12.20;99.90;;;;;;5100844;28;20457;-58
2022/05/11 02:37:55;;;;;;;24.37;17.00;;;12.20;99.90;;;;;;5100909;28;20435;-58
2022/05/11 02:40:23;;;;;;;21.13;15.20;;;12.20;99.90;;;;;;5094130;28;20510;-58
2022/05/11 02:42:49;;;;;;;28.63;16.60;;;12.20;99.90;;;;;;5099951;28;20443;-58
2022/05/11 02:45:15;;;;;;;23.47;17.13;;;12.10;99.90;;;;;;5100650;28;20836;-58
2022/05/11 02:47:42;;;;;;;30.27;17.70;;;12.20;99.90;;;;;;5102335;28;20196;-58
2022/05/11 02:50:12;;;;;;;27.83;16.83;;;12.20;99.90;;;;;;5105380;28;20521;-58
2022/05/11 02:52:37;;;;;;;27.23;16.93;;;12.20;99.90;;;;;;5101105;28;20470;-58
2022/05/11 02:55:03;;;;;;;21.33;15.83;;;12.20;99.90;;;;;;5099129;28;20441;-58
2022/05/11 02:57:29;;;;;;;28.90;16.20;;;12.20;99.90;;;;;;5104867;28;20201;-58
2022/05/11 02:59:54;;;;;;;23.90;14.90;;;12.20;99.90;;;;;;5098652;28;20442;-58
2022/05/11 03:02:21;;;;;;;20.67;15.23;;;12.20;99.90;;;;;;5101699;28;20977;-58
2022/05/11 03:04:51;;;;;;;21.93;15.90;;;12.20;99.90;;;;;;5101626;28;20722;-58
2022/05/11 03:07:17;;;;;;;21.73;15.27;;;12.10;99.90;;;;;;5104307;28;20840;-58
2022/05/11 03:09:43;;;;;;;22.60;15.77;;;12.20;99.90;;;;;;5102758;28;20445;-58
2022/05/11 03:12:09;;;;;;;25.53;15.87;;;12.10;99.90;;;;;;5105851;28;20607;-58
2022/05/11 03:14:34;;;;;;;25.83;14.77;;;12.20;99.90;;;;;;5104087;27;20450;-58
2022/05/11 03:17:02;;;;;;;25.30;15.40;;;12.10;99.90;;;;;;5102628;28;20762;-57
2022/05/11 03:19:28;;;;;;;21.17;14.87;;;12.10;99.90;;;;;;5098264;28;20262;-57
2022/05/11 03:21:53;;;;;;;20.80;15.33;;;12.20;99.90;;;;;;5098769;28;20458;-58
2022/05/11 03:24:19;;;;;;;20.40;14.70;;;12.20;99.90;;;;;;5097992;27;20441;-58
2022/05/11 03:26:45;;;;;;;25.73;14.80;;;12.20;99.90;;;;;;5105659;27;20200;-58
2022/05/11 03:29:11;;;;;;;20.67;14.10;;;12.30;99.90;;;;;;5102528;28;20196;-59
2022/05/11 03:31:38;;;;;;;26.13;15.60;;;12.30;99.90;;;;;;5101774;28;20231;-58
2022/05/11 03:36:48;;;;;;;17.07;13.93;;;12.30;99.90;;;;;;5101872;28;20448;-57
2022/05/11 03:39:18;;;;;;;20.70;14.50;;;12.30;99.90;;;;;;5100791;28;20431;-57
2022/05/11 03:41:47;;;;;;;21.17;14.73;;;12.30;99.90;;;;;;5105000;28;20238;-58
2022/05/11 03:44:13;;;;;;;23.30;12.93;;;12.20;99.90;;;;;;5107940;28;20485;-57
2022/05/11 03:46:38;;;;;;;21.90;14.00;;;12.20;99.90;;;;;;5107354;28;20460;-57
2022/05/11 03:49:04;;;;;;;21.40;13.73;;;12.20;99.90;;;;;;5101313;28;20192;-57
2022/05/11 03:51:29;;;;;;;19.70;15.17;;;12.20;99.90;;;;;;5107934;28;20220;-57
2022/05/11 03:53:56;;;;;;;21.60;14.17;;;12.20;99.90;;;;;;5105266;28;20876;-61
2022/05/11 03:56:22;;;;;;;22.10;14.20;;;12.20;99.90;;;;;;5101553;28;20200;-58
2022/05/11 03:58:47;;;;;;;20.03;14.50;;;12.20;99.90;;;;;;5102808;28;20422;-58
2022/05/11 04:01:14;;;;;;;23.37;14.67;;;12.30;99.90;;;;;;5107309;28;20176;-55
2022/05/11 04:03:40;;;;;;;21.77;14.57;;;12.30;99.90;;;;;;5103471;28;20196;-58
2022/05/11 04:06:06;;;;;;;19.00;14.33;;;12.30;99.90;;;;;;5099458;28;20464;-58
2022/05/11 04:08:31;;;;;;;19.13;13.33;;;12.30;99.90;;;;;;5109401;28;20931;-57
2022/05/11 04:10:57;;;;;;;19.30;14.13;;;12.30;99.90;;;;;;5104285;28;20274;-57
2022/05/11 04:13:24;;;;;;;18.77;13.90;;;12.40;99.90;;;;;;5100963;28;20218;-59
2022/05/11 04:15:51;;;;;;;18.13;14.03;;;12.40;99.90;;;;;;5105221;28;20193;-57
2022/05/11 04:18:18;;;;;;;23.00;13.73;;;12.40;99.90;;;;;;5107630;28;20445;-57
2022/05/11 04:20:44;;;;;;;18.10;13.47;;;12.40;99.90;;;;;;5104800;28;20528;-57
2022/05/11 04:23:10;;;;;;;19.90;14.90;;;12.50;99.90;;;;;;5105816;28;20465;-57
2022/05/11 04:25:35;;;;;;;19.17;14.40;;;12.50;99.90;;;;;;5106252;28;20200;-58
2022/05/11 04:28:03;;;;;;;19.63;14.57;;;12.50;99.90;;;;;;5107668;28;20265;-58
2022/05/11 04:30:31;;;;;;;17.23;14.43;;;12.60;99.90;;;;;;5107249;27;20638;-58
2022/05/11 04:32:59;;;;;;;23.73;13.60;;;12.60;99.90;;;;;;5104414;28;20835;-58
2022/05/11 04:35:31;;;;;;;21.77;13.70;;;12.60;99.90;;;;;;5104516;28;20794;-58
2022/05/11 04:38:01;;;;;;;19.80;14.00;;;12.70;99.90;;;;;;5103856;28;20431;-57
2022/05/11 04:40:28;;;;;;;19.83;14.20;;;12.70;99.90;;;;;;5089112;27;20435;-58
2022/05/11 04:42:54;;;;;;;18.83;13.50;;;12.80;99.90;;;;;;5099266;28;20851;-57
2022/05/11 04:45:20;;;;;;;16.77;13.83;;;12.80;99.90;;;;;;5104757;28;20446;-58
2022/05/11 04:47:46;;;;;;;19.57;14.20;;;12.90;99.90;;;;;;5104500;27;21011;-58
2022/05/11 04:50:13;;;;;;;18.53;14.07;;;12.90;99.90;;;;;;5108185;28;20462;-58
2022/05/11 04:52:39;;;;;;;18.40;13.20;;;12.90;99.90;;;;;;5101661;28;20213;-58
2022/05/11 04:55:07;;;;;;;21.47;14.90;;;12.90;99.90;;;;;;5106259;28;20661;-58
2022/05/11 04:57:33;;;;;;;17.30;13.27;;;13.00;99.90;;;;;;5096639;27;20205;-57
2022/05/11 04:59:58;;;;;;;24.13;15.90;;;13.00;99.90;;;;;;5106476;28;20426;-58
2022/05/11 05:02:27;;;;;;;17.80;14.80;;;13.10;99.90;;;;;;5105188;28;20450;-56
2022/05/11 05:04:58;;;;;;;19.63;14.70;;;13.10;99.90;;;;;;5105508;27;20681;-58
2022/05/11 05:07:24;;;;;;;21.87;15.20;;;13.20;99.90;;;;;;5099835;28;20469;-58
2022/05/11 05:09:50;;;;;;;27.03;15.97;;;13.30;99.90;;;;;;5098734;28;20944;-58
2022/05/11 05:12:16;;;;;;;20.70;16.20;;;13.40;99.90;;;;;;5098316;28;20469;-58
2022/05/11 05:14:42;;;;;;;27.97;15.63;;;13.40;99.90;;;;;;5105888;28;20196;-57
2022/05/11 05:17:10;;;;;;;25.10;15.00;;;13.40;99.90;;;;;;5104048;28;20262;-57
2022/05/11 05:19:37;;;;;;;20.33;15.20;;;13.50;99.90;;;;;;5102528;28;20489;-57
2022/05/11 05:22:03;;;;;;;23.40;16.50;;;13.50;99.90;;;;;;5098386;28;20457;-58
2022/05/11 05:24:30;;;;;;;21.80;17.00;;;13.50;99.90;;;;;;5105827;28;20438;-57
2022/05/11 05:26:56;;;;;;;28.17;16.10;;;13.60;99.90;;;;;;5101098;28;20642;-57
2022/05/11 05:32:06;;;;;;;22.87;15.80;;;13.80;99.90;;;;;;5097025;28;20231;-56
2022/05/11 05:34:31;;;;;;;24.33;17.30;;;13.80;99.90;;;;;;5109127;27;20441;-57
2022/05/11 05:36:57;;;;;;;24.63;15.73;;;14.00;99.90;;;;;;5109204;28;20438;-57
2022/05/11 05:39:22;;;;;;;22.80;16.10;;;14.10;99.90;;;;;;5109112;27;20646;-57
2022/05/11 05:41:48;;;;;;;25.70;15.73;;;14.10;99.90;;;;;;5105555;28;20212;-57
2022/05/11 05:44:14;;;;;;;24.47;16.70;;;14.20;99.90;;;;;;5103272;28;20211;-57
2022/05/11 05:46:39;;;;;;;25.63;16.77;;;14.20;99.90;;;;;;5104653;28;20322;-57
2022/05/11 05:49:05;;;;;;;22.40;15.37;;;14.30;99.90;;;;;;5109802;28;20222;-57
2022/05/11 05:51:31;;;;;;;21.60;15.80;;;14.20;99.90;;;;;;5109238;28;20216;-56
2022/05/11 05:53:57;;;;;;;21.33;15.17;;;14.10;99.90;;;;;;5109377;28;20430;-56
2022/05/11 05:56:23;;;;;;;29.00;15.73;;;14.10;99.90;;;;;;5109928;28;20193;-56
2022/05/11 05:58:49;;;;;;;21.17;15.60;;;14.00;99.90;;;;;;5109499;28;20294;-56
2022/05/11 06:01:18;;;;;;;24.83;15.10;;;14.00;99.90;;;;;;5107863;28;20446;-56
2022/05/11 06:03:44;;;;;;;27.03;17.33;;;14.00;99.90;;;;;;5095557;28;20188;-57
2022/05/11 06:06:11;;;;;;;32.73;18.20;;;14.00;99.90;;;;;;5109931;28;20566;-57
2022/05/11 06:08:37;;;;;;;22.40;16.80;;;13.90;99.90;;;;;;5103969;28;20287;-63
2022/05/11 06:11:05;;;;;;;30.80;19.43;;;14.00;99.90;;;;;;5098864;28;20465;-57
2022/05/11 06:13:30;;;;;;;24.47;16.50;;;14.00;99.90;;;;;;5109047;28;20433;-57
2022/05/11 06:15:56;;;;;;;26.03;15.77;;;14.00;99.90;;;;;;5088186;28;20431;-57
2022/05/11 06:18:23;;;;;;;25.83;16.70;;;14.00;99.90;;;;;;5087353;28;20200;-57
2022/05/11 06:20:51;;;;;;;23.20;16.80;;;14.00;99.90;;;;;;5100724;28;20982;-57
2022/05/11 06:23:18;;;;;;;23.10;16.70;;;14.10;99.90;;;;;;5109201;28;20461;-57
2022/05/11 06:25:44;;;;;;;21.77;15.83;;;14.10;99.90;;;;;;5107312;28;20477;-56
2022/05/11 06:28:09;;;;;;;24.07;16.30;;;14.10;99.90;;;;;;5104236;28;20440;-56
2022/05/11 06:30:35;;;;;;;23.70;17.37;;;14.20;99.90;;;;;;5074496;28;20200;-57
2022/05/11 06:33:02;;;;;;;31.00;17.00;;;14.20;99.90;;;;;;5109332;28;20219;-57
2022/05/11 06:35:29;;;;;;;23.13;16.47;;;14.30;99.90;;;;;;5108653;28;20192;-57
2022/05/11 06:37:55;;;;;;;23.00;15.93;;;14.40;99.90;;;;;;5110171;28;20745;-56
2022/05/11 06:40:22;;;;;;;20.57;14.40;;;14.50;99.90;;;;;;5108925;28;20514;-57
2022/05/11 06:42:52;;;;;;;26.53;15.10;;;14.60;99.90;;;;;;5109552;28;20422;-56
2022/05/11 06:45:19;;;;;;;24.97;15.87;;;14.80;99.90;;;;;;5099483;28;20437;-56
2022/05/11 06:47:45;;;;;;;22.43;15.80;;;14.90;1.00;;;;;;5113096;28;20445;-56
2022/05/11 06:50:12;;;;;;;22.40;16.83;;;14.90;22.20;;;;;;5111911;27;20448;-57
2022/05/11 06:52:38;;;;;;;23.23;15.47;;;14.80;9.60;;;;;;5113680;28;20216;-56
2022/05/11 07:00:34;;;;;;;27.77;13.57;;;15.20;1.00;;;;;;5114357;28;20958;-56
2022/05/11 07:02:59;;;;;;;17.73;12.67;;;15.30;1.00;;;;;;5113746;28;20410;-56
2022/05/11 07:05:26;;;;;;;20.03;13.27;;;15.30;1.00;;;;;;5113826;28;20459;-55
2022/05/11 07:07:52;;;;;;;16.17;12.93;;;15.30;1.00;;;;;;5111316;27;20200;-55
2022/05/11 07:10:19;;;;;;;24.40;13.53;;;15.30;1.00;;;;;;5110718;27;20507;-56
2022/05/11 07:12:47;;;;;;;25.53;14.73;;;15.20;1.00;;;;;;5112962;28;20670;-55
2022/05/11 07:15:16;;;;;;;20.93;14.50;;;15.10;1.00;;;;;;5111619;28;20538;-56
2022/05/11 07:17:54;;;;;;;21.07;12.70;;;14.90;1.00;;;;;;5106251;28;20457;-55
2022/05/11 07:20:28;;;;;;;22.73;12.87;;;14.90;1.00;;;;;;5105598;27;20492;-55
2022/05/11 07:22:54;;;;;;;23.13;13.53;;;14.90;1.00;;;;;;5104986;27;20540;-56
2022/05/11 07:25:22;;;;;;;17.83;12.90;;;14.90;1.00;;;;;;5111309;28;20529;-53
2022/05/11 07:27:49;;;;;;;20.73;13.03;;;14.70;1.00;;;;;;5101634;28;20567;-55
2022/05/11 07:30:19;;;;;;;18.53;12.70;;;14.80;1.00;;;;;;5110190;27;20438;-55
2022/05/11 07:32:44;;;;;;;16.10;12.77;;;14.70;1.00;;;;;;5082341;28;20543;-55
2022/05/11 07:35:10;;;;;;;19.47;13.37;;;14.80;1.00;;;;;;5100757;27;20548;-54
2022/05/11 07:37:37;;;;;;;17.73;12.90;;;14.80;1.00;;;;;;5102757;28;20263;-55
2022/05/11 07:40:05;;;;;;;16.57;12.30;;;14.80;1.00;;;;;;5107517;28;20188;-55
2022/05/11 07:42:31;;;;;;;19.17;12.10;;;14.80;1.00;;;;;;5109952;28;20453;-55
2022/05/11 07:44:57;;;;;;;20.23;13.00;;;14.80;1.00;;;;;;5109086;28;20528;-54
2022/05/11 07:47:22;;;;;;;14.57;11.20;;;14.80;1.00;;;;;;5112333;28;20967;-54
2022/05/11 07:49:48;;;;;;;20.60;12.23;;;14.80;1.00;;;;;;5108535;27;20204;-54
2022/05/11 07:52:14;;;;;;;19.30;12.90;;;14.90;1.00;;;;;;5111367;28;20960;-54
2022/05/11 07:54:40;;;;;;;16.03;11.30;;;14.80;1.00;;;;;;5112165;27;20196;-54
2022/05/11 07:59:57;;;;;;;20.10;11.97;;;15.00;1.00;;;;;;5112274;27;20501;-54
2022/05/11 08:02:27;;;;;;;17.57;11.93;;;14.90;1.00;;;;;;5111435;27;20445;-54
2022/05/11 08:04:53;;;;;;;17.90;11.63;;;14.90;1.00;;;;;;5112095;28;20437;-55
2022/05/11 08:07:19;;;;;;;15.90;11.63;;;15.00;1.00;;;;;;5112051;28;20434;-55
2022/05/11 08:09:45;;;;;;;19.83;11.93;;;15.00;1.00;;;;;;5109670;27;20801;-54
2022/05/11 08:12:11;;;;;;;18.00;12.23;;;15.00;1.00;;;;;;5106743;27;20619;-55
2022/05/11 08:14:36;;;;;;;18.03;11.80;;;15.10;1.00;;;;;;5105141;28;20566;-54
2022/05/11 08:17:02;;;;;;;15.63;11.43;;;15.20;1.00;;;;;;5110965;28;20642;-54
2022/05/11 08:19:28;;;;;;;20.00;11.43;;;15.20;1.00;;;;;;5100992;27;20311;-54
2022/05/11 08:21:55;;;;;;;13.37;10.50;;;15.20;1.00;;;;;;5105476;28;20200;-54
2022/05/11 08:24:21;;;;;;;22.43;11.37;;;15.20;1.00;;;;;;5110970;28;20438;-54
2022/05/11 08:26:47;;;;;;;14.73;11.07;;;15.20;1.00;;;;;;5074343;28;20450;-54
2022/05/11 08:33:19;;;;;;;20.27;12.03;;;15.30;1.00;;;;;;5099823;28;20440;-54
2022/05/11 08:34:44;;;;;;;20.00;11.50;;;15.50;1.00;;;;;;5102033;27;20955;-54
2022/05/11 08:37:12;;;;;;;16.93;12.07;;;15.60;1.00;;;;;;5104270;28;20441;-54
2022/05/11 08:39:37;;;;;;;14.60;11.53;;;15.60;99.90;;;;;;5110668;27;20422;-54
2022/05/11 08:42:03;;;;;;;19.17;12.30;;;15.60;99.90;;;;;;5111083;27;20595;-54
2022/05/11 08:44:33;;;;;;;15.47;11.70;;;15.70;99.90;;;;;;5111119;28;20661;-54
2022/05/11 08:47:27;;;;;;;17.23;12.20;;;15.80;99.90;;;;;;5111049;28;20256;-54
2022/05/11 08:50:11;;;;;;;18.40;13.20;;;15.80;99.90;;;;;;5091931;28;20438;-54
2022/05/11 08:52:46;;;;;;;15.13;11.37;;;15.70;99.90;;;;;;5105891;28;20493;-54
2022/05/11 08:55:32;;;;;;;17.07;12.80;;;15.70;99.90;;;;;;5099778;28;20795;-55
2022/05/11 08:58:04;;;;;;;16.00;11.90;;;15.80;1.00;;;;;;5094694;28;20410;-55
2022/05/11 09:00:30;;;;;;;16.00;10.93;;;16.00;99.90;;;;;;5105085;27;20931;-54
2022/05/11 09:03:21;;;;;;;14.23;11.30;;;16.10;99.90;;;;;;5109233;28;20552;-54
2022/05/11 09:05:47;;;;;;;14.97;11.90;;;16.20;99.90;;;;;;5109435;27;20450;-54
2022/05/11 09:08:13;;;;;;;18.87;12.20;;;16.50;99.90;;;;;;5110011;27;20448;-54
2022/05/11 09:10:39;;;;;;;18.50;11.60;;;16.70;99.90;;;;;;5107811;27;20510;-53
2022/05/11 09:13:09;;;;;;;16.90;10.67;;;17.00;99.90;;;;;;5103151;28;20806;-54
2022/05/11 09:16:03;;;;;;;11.77;10.30;;;17.20;99.90;;;;;;5111361;28;20411;-54
2022/05/11 09:18:31;;;;;;;11.73;9.40;;;17.30;99.90;;;;;;5094119;28;20453;-54
2022/05/11 09:20:59;;;;;;;12.07;9.73;;;17.30;99.90;;;;;;5111190;28;21090;-53
2022/05/11 09:23:32;;;;;;;13.20;9.77;;;17.40;99.90;;;;;;5100088;27;20442;-54
2022/05/11 09:26:03;;;;;;;17.67;10.40;;;17.90;99.90;;;;;;5072402;28;20431;-53
2022/05/11 09:28:32;;;;;;;11.90;10.30;;;18.70;99.90;;;;;;5103748;27;20441;-54
2022/05/11 09:31:16;;;;;;;11.47;9.20;;;19.30;99.90;;;;;;5109052;27;20464;-53
2022/05/11 09:34:00;;;;;;;14.73;10.10;;;19.60;99.90;;;;;;5110855;28;20437;-54
2022/05/11 09:36:41;;;;;;;15.57;10.37;;;19.00;99.90;;;;;;5110835;28;20417;-53
2022/05/11 09:39:13;;;;;;;16.07;10.80;;;19.10;99.90;;;;;;5110818;28;20750;-53
2022/05/11 09:41:41;;;;;;;11.03;9.73;;;19.10;99.90;;;;;;5090761;28;20449;-54
2022/05/11 09:44:26;;;;;;;12.80;10.10;;;18.90;99.90;;;;;;5100069;28;20446;-54
2022/05/11 09:46:53;;;;;;;13.77;10.20;;;18.90;99.90;;;;;;5101379;28;20433;-53
2022/05/11 09:49:18;;;;;;;11.63;9.43;;;18.90;99.90;;;;;;5110049;28;20518;-53
2022/05/11 09:51:46;;;;;;;12.17;9.60;;;18.70;99.90;;;;;;5106745;28;20552;-53
2022/05/11 09:54:18;;;;;;;12.80;9.27;;;18.40;99.90;;;;;;5098551;28;20193;-54
2022/05/11 09:56:53;;;;;;;14.97;9.73;;;18.60;99.90;;;;;;5093469;28;21220;-52
2022/05/11 09:59:25;;;;;;;9.93;8.37;;;19.60;99.90;;;;;;5096548;28;20440;-53
2022/05/11 10:01:59;;;;;;;11.53;8.47;;;20.50;99.90;;;;;;5109035;28;20495;-53
2022/05/11 10:04:36;;;;;;;12.30;8.20;;;20.60;99.90;;;;;;5110140;28;20413;-53
2022/05/11 10:07:05;;;;;;;11.40;8.27;;;20.20;99.90;;;;;;5104452;28;21222;-53
2022/05/11 10:09:40;;;;;;;14.83;8.00;;;19.80;99.90;;;;;;5102814;28;21186;-53
2022/05/11 10:12:11;;;;;;;11.63;7.23;;;19.70;99.90;;;;;;5109901;28;20469;-54
2022/05/11 10:23:07;;;;;;;8.10;6.10;;;21.40;99.90;;;;;;5100589;28;20438;-53
2022/05/11 10:25:39;;;;;;;9.87;6.67;;;21.70;99.90;;;;;;5107666;27;20436;-55
2022/05/11 10:28:23;;;;;;;8.20;5.77;;;22.20;99.90;;;;;;5112350;28;20516;-53
2022/05/11 10:30:48;;;;;;;11.80;6.67;;;22.70;99.90;;;;;;5106389;28;20419;-53
2022/05/11 10:33:25;;;;;;;10.33;6.57;;;22.90;99.90;;;;;;5094079;28;20819;-54
2022/05/11 10:36:35;;;;;;;9.63;6.40;;;23.40;99.90;;;;;;5094166;28;20518;-53
2022/05/11 10:39:33;;;;;;;9.43;6.80;;;23.60;99.90;;;;;;5092694;28;20756;-53
2022/05/11 10:42:55;;;;;;;8.20;6.20;;;23.60;99.90;;;;;;5069923;28;20521;-52
2022/05/11 10:45:28;;;;;;;16.27;6.60;;;24.30;99.90;;;;;;5031191;28;21433;-51
2022/05/11 10:48:00;;;;;;;9.67;6.53;;;24.30;99.90;;;;;;5031013;28;20413;-52
2022/05/11 10:50:29;;;;;;;11.73;6.30;;;24.60;99.90;;;;;;5065685;28;20419;-51
2022/05/11 10:53:12;;;;;;;11.07;6.50;;;24.60;99.90;;;;;;5093380;28;20447;-51
2022/05/11 10:55:50;;;;;;;9.10;6.27;;;24.50;99.90;;;;;;5112657;28;20908;-52
2022/05/11 10:58:37;;;;;;;14.13;6.43;;;24.80;99.90;;;;;;5113972;28;20876;-51
2022/05/11 11:01:16;;;;;;;7.67;6.03;;;24.60;99.90;;;;;;5111661;28;20418;-52
2022/05/11 11:03:56;;;;;;;8.80;6.57;;;24.60;99.90;;;;;;5113478;28;20406;-52
2022/05/11 11:07:11;;;;;;;7.83;6.60;;;24.60;99.90;;;;;;5114182;28;20409;-52
2022/05/11 11:09:51;;;;;;;8.93;5.70;;;24.20;99.90;;;;;;5113322;28;20410;-51
2022/05/11 11:12:35;;;;;;;15.33;6.77;;;23.60;99.90;;;;;;5113404;28;20453;-52
2022/05/11 11:15:07;;;;;;;11.00;6.90;;;23.00;99.90;;;;;;5113459;28;20413;-52
2022/05/11 11:17:33;;;;;;;14.10;6.27;;;22.70;99.90;;;;;;5113335;28;20417;-52
2022/05/11 11:20:03;;;;;;;8.33;6.40;;;22.60;99.90;;;;;;5113213;28;20549;-51
2022/05/11 11:22:59;;;;;;;10.00;8.10;;;22.70;99.90;;;;;;5113174;28;20931;-51
2022/05/11 11:25:25;;;;;;;10.10;6.83;;;22.60;99.90;;;;;;5113040;28;20402;-51
2022/05/11 11:28:10;;;;;;;9.10;7.13;;;22.50;99.90;;;;;;5113198;28;20394;-51
2022/05/11 11:30:37;;;;;;;9.07;7.87;;;22.50;99.90;;;;;;5111358;28;20445;-51
2022/05/11 11:33:21;;;;;;;7.90;6.80;;;22.70;99.90;;;;;;5112423;28;20507;-51
2022/05/11 11:36:00;;;;;;;8.53;6.30;;;23.30;99.90;;;;;;5113161;28;20895;-51
2022/05/11 11:38:30;;;;;;;11.00;7.00;;;24.00;99.90;;;;;;5112737;28;20774;-52
2022/05/11 11:41:20;;;;;;;12.20;7.00;;;24.70;99.90;;;;;;5112772;28;20406;-51
2022/05/11 11:43:49;;;;;;;10.30;5.73;;;25.30;99.90;;;;;;5112936;28;20437;-51
2022/05/11 11:46:36;;;;;;;9.27;6.63;;;25.90;99.90;;;;;;5112962;28;20760;-52
2022/05/11 11:49:18;;;;;;;10.70;6.20;;;26.30;99.90;;;;;;5112844;28;20484;-52
2022/05/11 11:52:01;;;;;;;9.33;6.47;;;26.50;99.90;;;;;;5112664;28;20458;-52
2022/05/11 11:54:38;;;;;;;9.60;6.67;;;26.40;99.90;;;;;;5101806;28;21110;-51
2022/05/11 11:57:25;;;;;;;10.63;6.10;;;26.40;99.90;;;;;;5091959;28;20438;-52
2022/05/11 12:00:05;;;;;;;8.60;7.00;;;26.30;99.90;;;;;;5092107;28;20451;-51
2022/05/11 12:02:44;;;;;;;9.90;6.50;;;25.50;99.90;;;;;;5092232;28;20405;-51
2022/05/11 12:05:11;;;;;;;8.07;6.30;;;25.80;99.90;;;;;;5092230;28;20471;-53
2022/05/11 12:16:53;;;;;;;8.57;5.50;;;26.10;99.90;;;;;;5091908;28;20411;-53
2022/05/11 12:19:20;;;;;;;10.80;6.13;;;26.60;99.90;;;;;;5091864;28;20600;-52
2022/05/11 12:22:04;;;;;;;5.50;5.00;;;26.90;99.90;;;;;;5091748;28;20415;-51
2022/05/11 12:24:42;;;;;;;10.40;5.57;;;27.20;99.90;;;;;;5091595;28;20403;-53
2022/05/11 12:27:13;;;;;;;9.27;5.90;;;27.20;99.90;;;;;;5091438;28;20411;-53
2022/05/11 12:29:59;;;;;;;8.33;4.97;;;27.20;99.90;;;;;;5091867;28;20398;-53
2022/05/11 12:32:40;;;;;;;6.80;4.63;;;26.90;99.90;;;;;;5091443;28;20884;-54
2022/05/11 12:35:11;;;;;;;9.47;5.37;;;27.40;99.90;;;;;;5091759;28;20391;-53
2022/05/11 12:37:38;;;;;;;6.77;5.60;;;27.10;99.90;;;;;;5091402;28;20748;-54
2022/05/11 12:40:13;;;;;;;6.53;5.37;;;26.70;99.90;;;;;;5091407;28;21011;-53
2022/05/11 12:42:45;;;;;;;14.40;5.53;;;26.40;99.90;;;;;;5091338;28;20399;-53
2022/05/11 12:45:19;;;;;;;11.03;5.40;;;26.60;99.90;;;;;;5090838;28;20472;-53
2022/05/11 12:47:49;;;;;;;9.60;5.17;;;26.90;99.90;;;;;;5089963;28;20439;-53
2022/05/11 12:50:27;;;;;;;8.30;4.90;;;27.10;99.90;;;;;;5091197;28;20916;-53
2022/05/11 12:53:17;;;;;;;7.20;4.20;;;27.30;99.90;;;;;;5091289;28;20466;-53
2022/05/11 12:55:46;;;;;;;7.20;4.70;;;27.30;99.90;;;;;;5091011;28;20419;-53
2022/05/11 12:58:41;;;;;;;5.17;4.23;;;27.00;99.90;;;;;;5100658;28;20474;-52
2022/05/11 13:01:12;;;;;;;9.43;4.63;;;26.50;99.90;;;;;;5099875;27;20944;-53
2022/05/11 13:03:38;;;;;;;4.20;3.80;;;26.30;99.90;;;;;;5109941;28;20430;-53
2022/05/11 13:06:26;;;;;;;5.13;3.50;;;26.20;99.90;;;;;;5098407;28;20552;-53
2022/05/11 13:08:56;;;;;;;7.20;4.20;;;26.70;99.90;;;;;;5096276;28;21256;-53
2022/05/11 13:11:26;;;;;;;7.90;3.73;;;27.40;99.90;;;;;;5099024;28;20501;-53
2022/05/11 13:13:55;;;;;;;8.90;3.97;;;27.60;99.90;;;;;;5091566;28;21217;-53
2022/05/11 13:16:48;;;;;;;5.90;3.27;;;27.30;99.90;;;;;;5090833;28;20781;-53
2022/05/11 13:19:25;;;;;;;5.63;3.60;;;27.20;99.90;;;;;;5097697;28;20538;-53
2022/05/11 13:21:52;;;;;;;6.87;3.13;;;27.60;99.90;;;;;;5109664;28;20410;-53
2022/05/11 13:24:49;;;;;;;5.63;3.00;;;27.70;99.90;;;;;;5109037;28;20434;-53
2022/05/11 13:27:36;;;;;;;9.60;3.60;;;27.70;99.90;;;;;;5109399;28;20994;-53